sensor_id;sensor_type;location;lat;lon;timestamp;temperature;humidity
56240;DHT22;42154;51.992;5.896;2023-07-02T00:01:33;18.40;99.90
56240;DHT22;42154;51.992;5.896;2023-07-02T00:03:59;18.40;99.90
56240;DHT22;42154;51.992;5.896;2023-07-02T00:06:24;18.40;99.90
56240;DHT22;42154;51.992;5.896;2023-07-02T00:08:50;18.40;99.90
56240;DHT22;42154;51.992;5.896;2023-07-02T00:11:16;18.40;99.90
56240;DHT22;42154;51.992;5.896;2023-07-02T00:13:42;18.40;99.90
56240;DHT22;42154;51.992;5.896;2023-07-02T00:16:07;18.40;99.90
56240;DHT22;42154;51.992;5.896;2023-07-02T00:18:33;18.40;99.90
56240;DHT22;42154;51.992;5.896;2023-07-02T00:21:01;18.40;99.90
56240;DHT22;42154;51.992;5.896;2023-07-02T00:23:29;18.40;99.90
56240;DHT22;42154;51.992;5.896;2023-07-02T00:25:56;18.40;99.90
56240;DHT22;42154;51.992;5.896;2023-07-02T00:28:22;18.40;99.90
56240;DHT22;42154;51.992;5.896;2023-07-02T00:30:48;18.40;99.90
56240;DHT22;42154;51.992;5.896;2023-07-02T00:33:14;18.40;99.90
56240;DHT22;42154;51.992;5.896;2023-07-02T00:35:40;18.40;99.90
56240;DHT22;42154;51.992;5.896;2023-07-02T00:38:06;18.40;99.90
56240;DHT22;42154;51.992;5.896;2023-07-02T00:40:32;18.40;99.90
56240;DHT22;42154;51.992;5.896;2023-07-02T00:42:58;18.40;99.90
56240;DHT22;42154;51.992;5.896;2023-07-02T00:45:23;18.40;99.90
56240;DHT22;42154;51.992;5.896;2023-07-02T00:47:54;18.30;99.90
56240;DHT22;42154;51.992;5.896;2023-07-02T00:50:21;18.30;99.90
56240;DHT22;42154;51.992;5.896;2023-07-02T00:52:48;18.20;99.90
56240;DHT22;42154;51.992;5.896;2023-07-02T00:55:14;18.10;99.90
56240;DHT22;42154;51.992;5.896;2023-07-02T00:57:41;18.00;99.90
56240;DHT22;42154;51.992;5.896;2023-07-02T01:00:12;18.00;99.90
56240;DHT22;42154;51.992;5.896;2023-07-02T01:02:38;17.90;99.90
56240;DHT22;42154;51.992;5.896;2023-07-02T01:05:18;17.70;99.90
56240;DHT22;42154;51.992;5.896;2023-07-02T01:07:47;17.70;99.90
56240;DHT22;42154;51.992;5.896;2023-07-02T01:10:12;17.60;99.90
56240;DHT22;42154;51.992;5.896;2023-07-02T01:12:38;17.60;99.90
56240;DHT22;42154;51.992;5.896;2023-07-02T01:15:06;17.50;99.90
56240;DHT22;42154;51.992;5.896;2023-07-02T01:17:34;17.50;99.90
56240;DHT22;42154;51.992;5.896;2023-07-02T01:20:09;17.50;99.90
56240;DHT22;42154;51.992;5.896;2023-07-02T01:22:35;17.40;99.90
56240;DHT22;42154;51.992;5.896;2023-07-02T01:25:01;17.30;99.90
56240;DHT22;42154;51.992;5.896;2023-07-02T01:27:28;17.30;99.90
56240;DHT22;42154;51.992;5.896;2023-07-02T01:29:55;17.30;99.90
56240;DHT22;42154;51.992;5.896;2023-07-02T01:32:21;17.30;99.90
56240;DHT22;42154;51.992;5.896;2023-07-02T01:34:50;17.20;99.90
56240;DHT22;42154;51.992;5.896;2023-07-02T01:37:19;17.20;99.90
56240;DHT22;42154;51.992;5.896;2023-07-02T01:39:45;17.20;99.90
56240;DHT22;42154;51.992;5.896;2023-07-02T01:42:12;17.20;99.90
56240;DHT22;42154;51.992;5.896;2023-07-02T01:44:38;17.10;99.90
56240;DHT22;42154;51.992;5.896;2023-07-02T01:47:05;17.10;99.90
56240;DHT22;42154;51.992;5.896;2023-07-02T01:49:31;17.10;99.90
56240;DHT22;42154;51.992;5.896;2023-07-02T01:51:57;17.00;99.90
56240;DHT22;42154;51.992;5.896;2023-07-02T01:54:25;17.00;99.90
56240;DHT22;42154;51.992;5.896;2023-07-02T01:56:55;16.90;99.90
56240;DHT22;42154;51.992;5.896;2023-07-02T01:59:22;16.90;99.90
56240;DHT22;42154;51.992;5.896;2023-07-02T02:01:48;16.80;99.90
56240;DHT22;42154;51.992;5.896;2023-07-02T02:04:13;16.70;99.90
56240;DHT22;42154;51.992;5.896;2023-07-02T02:06:40;16.70;99.90
56240;DHT22;42154;51.992;5.896;2023-07-02T02:09:06;16.60;99.90
56240;DHT22;42154;51.992;5.896;2023-07-02T02:11:33;16.60;99.90
56240;DHT22;42154;51.992;5.896;2023-07-02T02:13:59;16.50;99.90
56240;DHT22;42154;51.992;5.896;2023-07-02T02:16:27;16.40;99.90
56240;DHT22;42154;51.992;5.896;2023-07-02T02:18:53;16.40;99.90
56240;DHT22;42154;51.992;5.896;2023-07-02T02:21:20;16.30;99.90
56240;DHT22;42154;51.992;5.896;2023-07-02T02:23:47;16.20;99.90
56240;DHT22;42154;51.992;5.896;2023-07-02T02:26:13;16.20;99.90
56240;DHT22;42154;51.992;5.896;2023-07-02T02:28:39;16.10;99.90
56240;DHT22;42154;51.992;5.896;2023-07-02T02:31:05;16.10;99.90
56240;DHT22;42154;51.992;5.896;2023-07-02T02:33:32;16.00;99.90
56240;DHT22;42154;51.992;5.896;2023-07-02T02:35:58;16.00;99.90
56240;DHT22;42154;51.992;5.896;2023-07-02T02:38:24;16.00;99.90
56240;DHT22;42154;51.992;5.896;2023-07-02T02:40:50;16.00;99.90
56240;DHT22;42154;51.992;5.896;2023-07-02T02:43:19;15.90;99.90
56240;DHT22;42154;51.992;5.896;2023-07-02T02:45:46;15.90;99.90
56240;DHT22;42154;51.992;5.896;2023-07-02T02:48:12;15.90;99.90
56240;DHT22;42154;51.992;5.896;2023-07-02T02:50:38;15.90;99.90
56240;DHT22;42154;51.992;5.896;2023-07-02T02:53:09;15.80;99.90
56240;DHT22;42154;51.992;5.896;2023-07-02T02:55:36;15.80;99.90
56240;DHT22;42154;51.992;5.896;2023-07-02T02:58:02;15.80;99.90
56240;DHT22;42154;51.992;5.896;2023-07-02T03:00:29;15.90;99.90
56240;DHT22;42154;51.992;5.896;2023-07-02T03:02:55;15.80;99.90
56240;DHT22;42154;51.992;5.896;2023-07-02T03:05:22;15.80;99.90
56240;DHT22;42154;51.992;5.896;2023-07-02T03:07:49;15.90;99.90
56240;DHT22;42154;51.992;5.896;2023-07-02T03:10:15;15.80;99.90
56240;DHT22;42154;51.992;5.896;2023-07-02T03:12:40;15.90;99.90
56240;DHT22;42154;51.992;5.896;2023-07-02T03:15:07;15.90;99.90
56240;DHT22;42154;51.992;5.896;2023-07-02T03:17:33;15.80;99.90
56240;DHT22;42154;51.992;5.896;2023-07-02T03:19:59;15.90;99.90
56240;DHT22;42154;51.992;5.896;2023-07-02T03:22:25;15.90;99.90
56240;DHT22;42154;51.992;5.896;2023-07-02T03:24:51;15.90;99.90
56240;DHT22;42154;51.992;5.896;2023-07-02T03:27:16;15.90;99.90
56240;DHT22;42154;51.992;5.896;2023-07-02T03:29:42;15.90;99.90
56240;DHT22;42154;51.992;5.896;2023-07-02T03:32:08;15.90;99.90
56240;DHT22;42154;51.992;5.896;2023-07-02T03:34:34;15.90;99.90
56240;DHT22;42154;51.992;5.896;2023-07-02T03:36:59;15.90;99.90
56240;DHT22;42154;51.992;5.896;2023-07-02T03:39:25;15.90;99.90
56240;DHT22;42154;51.992;5.896;2023-07-02T03:41:51;15.90;99.90
56240;DHT22;42154;51.992;5.896;2023-07-02T03:44:18;15.90;99.90
56240;DHT22;42154;51.992;5.896;2023-07-02T03:46:45;15.90;99.90
56240;DHT22;42154;51.992;5.896;2023-07-02T03:49:10;15.90;99.90
56240;DHT22;42154;51.992;5.896;2023-07-02T03:51:36;15.90;99.90
56240;DHT22;42154;51.992;5.896;2023-07-02T03:54:02;15.90;99.90
56240;DHT22;42154;51.992;5.896;2023-07-02T03:56:28;15.80;99.90
56240;DHT22;42154;51.992;5.896;2023-07-02T03:58:53;15.80;99.90
56240;DHT22;42154;51.992;5.896;2023-07-02T04:01:19;15.80;99.90
56240;DHT22;42154;51.992;5.896;2023-07-02T04:03:49;15.80;99.90
56240;DHT22;42154;51.992;5.896;2023-07-02T04:06:16;15.80;99.90
56240;DHT22;42154;51.992;5.896;2023-07-02T04:08:42;15.80;99.90
56240;DHT22;42154;51.992;5.896;2023-07-02T04:11:08;15.80;99.90
56240;DHT22;42154;51.992;5.896;2023-07-02T04:13:34;15.80;99.90
56240;DHT22;42154;51.992;5.896;2023-07-02T04:16:00;15.80;99.90
56240;DHT22;42154;51.992;5.896;2023-07-02T04:18:25;15.80;99.90
56240;DHT22;42154;51.992;5.896;2023-07-02T04:20:51;15.90;99.90
56240;DHT22;42154;51.992;5.896;2023-07-02T04:23:17;16.60;99.90
56240;DHT22;42154;51.992;5.896;2023-07-02T04:25:43;17.50;99.90
56240;DHT22;42154;51.992;5.896;2023-07-02T04:28:08;18.20;99.90
56240;DHT22;42154;51.992;5.896;2023-07-02T04:30:34;18.60;99.90
56240;DHT22;42154;51.992;5.896;2023-07-02T04:33:00;18.40;99.90
56240;DHT22;42154;51.992;5.896;2023-07-02T04:35:26;18.10;99.90
56240;DHT22;42154;51.992;5.896;2023-07-02T04:37:52;17.80;99.90
56240;DHT22;42154;51.992;5.896;2023-07-02T04:40:18;17.50;99.90
56240;DHT22;42154;51.992;5.896;2023-07-02T04:42:44;17.40;99.90
56240;DHT22;42154;51.992;5.896;2023-07-02T04:45:14;17.50;99.90
56240;DHT22;42154;51.992;5.896;2023-07-02T04:47:44;17.80;99.90
56240;DHT22;42154;51.992;5.896;2023-07-02T04:50:10;18.60;99.90
56240;DHT22;42154;51.992;5.896;2023-07-02T04:52:38;19.60;99.90
56240;DHT22;42154;51.992;5.896;2023-07-02T04:55:04;20.50;99.90
56240;DHT22;42154;51.992;5.896;2023-07-02T04:57:30;21.30;99.90
56240;DHT22;42154;51.992;5.896;2023-07-02T04:59:56;21.80;99.90
56240;DHT22;42154;51.992;5.896;2023-07-02T05:02:22;22.00;99.90
56240;DHT22;42154;51.992;5.896;2023-07-02T05:04:48;21.70;99.90
56240;DHT22;42154;51.992;5.896;2023-07-02T05:07:13;21.30;99.90
56240;DHT22;42154;51.992;5.896;2023-07-02T05:09:39;20.90;99.90
56240;DHT22;42154;51.992;5.896;2023-07-02T05:12:05;20.50;99.90
56240;DHT22;42154;51.992;5.896;2023-07-02T05:14:31;20.10;99.90
56240;DHT22;42154;51.992;5.896;2023-07-02T05:16:56;19.80;99.90
56240;DHT22;42154;51.992;5.896;2023-07-02T05:19:22;19.60;99.90
56240;DHT22;42154;51.992;5.896;2023-07-02T05:21:48;19.30;99.90
56240;DHT22;42154;51.992;5.896;2023-07-02T05:24:14;19.20;99.90
56240;DHT22;42154;51.992;5.896;2023-07-02T05:26:39;19.10;99.90
56240;DHT22;42154;51.992;5.896;2023-07-02T05:29:05;19.10;99.90
56240;DHT22;42154;51.992;5.896;2023-07-02T05:31:31;19.10;99.90
56240;DHT22;42154;51.992;5.896;2023-07-02T05:33:57;19.00;99.90
56240;DHT22;42154;51.992;5.896;2023-07-02T05:36:23;18.90;99.90
56240;DHT22;42154;51.992;5.896;2023-07-02T05:38:48;18.80;99.90
56240;DHT22;42154;51.992;5.896;2023-07-02T05:41:20;18.70;99.90
56240;DHT22;42154;51.992;5.896;2023-07-02T05:43:47;18.70;99.90
56240;DHT22;42154;51.992;5.896;2023-07-02T05:46:13;18.60;99.90
56240;DHT22;42154;51.992;5.896;2023-07-02T05:48:40;18.50;99.90
56240;DHT22;42154;51.992;5.896;2023-07-02T05:51:07;18.40;99.90
56240;DHT22;42154;51.992;5.896;2023-07-02T05:53:32;18.40;99.90
56240;DHT22;42154;51.992;5.896;2023-07-02T05:55:58;18.30;99.90
56240;DHT22;42154;51.992;5.896;2023-07-02T05:58:24;18.30;99.90
56240;DHT22;42154;51.992;5.896;2023-07-02T06:00:50;18.40;99.90
56240;DHT22;42154;51.992;5.896;2023-07-02T06:03:17;18.50;99.90
56240;DHT22;42154;51.992;5.896;2023-07-02T06:05:49;18.50;99.90
56240;DHT22;42154;51.992;5.896;2023-07-02T06:08:15;18.50;99.90
56240;DHT22;42154;51.992;5.896;2023-07-02T06:10:45;18.50;99.90
56240;DHT22;42154;51.992;5.896;2023-07-02T06:13:11;18.60;99.90
56240;DHT22;42154;51.992;5.896;2023-07-02T06:15:37;18.60;99.90
56240;DHT22;42154;51.992;5.896;2023-07-02T06:18:03;18.50;99.90
56240;DHT22;42154;51.992;5.896;2023-07-02T06:20:29;18.50;99.90
56240;DHT22;42154;51.992;5.896;2023-07-02T06:22:54;18.50;99.90
56240;DHT22;42154;51.992;5.896;2023-07-02T06:25:20;18.60;99.90
56240;DHT22;42154;51.992;5.896;2023-07-02T06:27:46;18.70;99.90
56240;DHT22;42154;51.992;5.896;2023-07-02T06:30:12;18.70;99.90
56240;DHT22;42154;51.992;5.896;2023-07-02T06:32:38;18.70;99.90
56240;DHT22;42154;51.992;5.896;2023-07-02T06:35:04;18.60;99.90
56240;DHT22;42154;51.992;5.896;2023-07-02T06:37:32;18.60;99.90
56240;DHT22;42154;51.992;5.896;2023-07-02T06:39:58;18.70;99.90
56240;DHT22;42154;51.992;5.896;2023-07-02T06:42:25;18.80;99.90
56240;DHT22;42154;51.992;5.896;2023-07-02T06:44:51;18.90;99.90
56240;DHT22;42154;51.992;5.896;2023-07-02T06:47:17;19.00;99.90
56240;DHT22;42154;51.992;5.896;2023-07-02T06:49:43;19.00;99.90
56240;DHT22;42154;51.992;5.896;2023-07-02T06:52:09;19.00;99.90
56240;DHT22;42154;51.992;5.896;2023-07-02T06:54:35;19.00;99.90
56240;DHT22;42154;51.992;5.896;2023-07-02T06:57:01;19.10;99.90
56240;DHT22;42154;51.992;5.896;2023-07-02T06:59:27;19.20;99.90
56240;DHT22;42154;51.992;5.896;2023-07-02T07:01:53;19.30;99.90
56240;DHT22;42154;51.992;5.896;2023-07-02T07:04:18;19.20;99.90
56240;DHT22;42154;51.992;5.896;2023-07-02T07:06:44;19.20;99.90
56240;DHT22;42154;51.992;5.896;2023-07-02T07:09:10;19.20;99.90
56240;DHT22;42154;51.992;5.896;2023-07-02T07:11:36;19.20;99.90
56240;DHT22;42154;51.992;5.896;2023-07-02T07:14:02;19.20;99.90
56240;DHT22;42154;51.992;5.896;2023-07-02T07:16:28;19.20;99.90
56240;DHT22;42154;51.992;5.896;2023-07-02T07:18:54;19.20;99.90
56240;DHT22;42154;51.992;5.896;2023-07-02T07:21:19;19.10;99.90
56240;DHT22;42154;51.992;5.896;2023-07-02T07:23:45;19.00;99.90
56240;DHT22;42154;51.992;5.896;2023-07-02T07:26:11;19.00;99.90
56240;DHT22;42154;51.992;5.896;2023-07-02T07:28:37;18.90;99.90
56240;DHT22;42154;51.992;5.896;2023-07-02T07:31:03;18.80;99.90
56240;DHT22;42154;51.992;5.896;2023-07-02T07:33:28;18.80;99.90
56240;DHT22;42154;51.992;5.896;2023-07-02T07:35:55;18.80;99.90
56240;DHT22;42154;51.992;5.896;2023-07-02T07:38:20;18.90;99.90
56240;DHT22;42154;51.992;5.896;2023-07-02T07:40:46;18.90;99.90
56240;DHT22;42154;51.992;5.896;2023-07-02T07:43:12;18.90;99.90
56240;DHT22;42154;51.992;5.896;2023-07-02T07:45:38;19.00;99.90
56240;DHT22;42154;51.992;5.896;2023-07-02T07:48:05;19.10;99.90
56240;DHT22;42154;51.992;5.896;2023-07-02T07:50:31;19.10;99.90
56240;DHT22;42154;51.992;5.896;2023-07-02T07:52:59;19.20;99.90
56240;DHT22;42154;51.992;5.896;2023-07-02T07:55:24;19.40;99.90
56240;DHT22;42154;51.992;5.896;2023-07-02T07:57:50;19.60;99.90
56240;DHT22;42154;51.992;5.896;2023-07-02T08:00:16;19.80;99.90
56240;DHT22;42154;51.992;5.896;2023-07-02T08:02:45;19.90;99.90
56240;DHT22;42154;51.992;5.896;2023-07-02T08:05:12;19.80;99.90
56240;DHT22;42154;51.992;5.896;2023-07-02T08:07:39;19.80;99.90
56240;DHT22;42154;51.992;5.896;2023-07-02T08:10:06;19.70;99.90
56240;DHT22;42154;51.992;5.896;2023-07-02T08:12:34;19.70;99.90
56240;DHT22;42154;51.992;5.896;2023-07-02T08:15:00;19.70;99.90
56240;DHT22;42154;51.992;5.896;2023-07-02T08:17:25;19.80;99.90
56240;DHT22;42154;51.992;5.896;2023-07-02T08:19:51;19.80;99.90
56240;DHT22;42154;51.992;5.896;2023-07-02T08:22:17;19.80;99.90
56240;DHT22;42154;51.992;5.896;2023-07-02T08:24:43;19.90;99.90
56240;DHT22;42154;51.992;5.896;2023-07-02T08:27:09;20.00;99.90
56240;DHT22;42154;51.992;5.896;2023-07-02T08:29:35;20.00;99.90
56240;DHT22;42154;51.992;5.896;2023-07-02T08:32:04;20.10;99.70
56240;DHT22;42154;51.992;5.896;2023-07-02T08:34:30;20.20;98.90
56240;DHT22;42154;51.992;5.896;2023-07-02T08:36:55;20.30;99.10
56240;DHT22;42154;51.992;5.896;2023-07-02T08:39:21;20.30;98.00
56240;DHT22;42154;51.992;5.896;2023-07-02T08:41:48;20.20;97.60
56240;DHT22;42154;51.992;5.896;2023-07-02T08:44:17;20.20;97.60
56240;DHT22;42154;51.992;5.896;2023-07-02T08:46:44;20.00;97.50
56240;DHT22;42154;51.992;5.896;2023-07-02T08:49:10;19.80;97.40
56240;DHT22;42154;51.992;5.896;2023-07-02T08:51:36;19.70;97.00
56240;DHT22;42154;51.992;5.896;2023-07-02T08:54:03;19.60;97.20
56240;DHT22;42154;51.992;5.896;2023-07-02T08:56:30;19.60;97.60
56240;DHT22;42154;51.992;5.896;2023-07-02T08:58:56;19.70;97.70
56240;DHT22;42154;51.992;5.896;2023-07-02T09:01:22;20.00;97.90
56240;DHT22;42154;51.992;5.896;2023-07-02T09:03:49;20.20;97.60
56240;DHT22;42154;51.992;5.896;2023-07-02T09:06:17;20.40;97.50
56240;DHT22;42154;51.992;5.896;2023-07-02T09:08:43;20.60;97.50
56240;DHT22;42154;51.992;5.896;2023-07-02T09:13:51;20.60;97.10
56240;DHT22;42154;51.992;5.896;2023-07-02T09:16:32;20.40;96.60
56240;DHT22;42154;51.992;5.896;2023-07-02T09:19:04;20.20;96.70
56240;DHT22;42154;51.992;5.896;2023-07-02T09:21:45;20.00;96.70
56240;DHT22;42154;51.992;5.896;2023-07-02T09:24:16;20.00;97.20
56240;DHT22;42154;51.992;5.896;2023-07-02T09:26:45;20.10;96.70
56240;DHT22;42154;51.992;5.896;2023-07-02T09:29:12;20.30;96.60
56240;DHT22;42154;51.992;5.896;2023-07-02T09:31:47;20.30;95.00
56240;DHT22;42154;51.992;5.896;2023-07-02T09:34:14;20.30;95.00
56240;DHT22;42154;51.992;5.896;2023-07-02T09:36:40;20.50;95.60
56240;DHT22;42154;51.992;5.896;2023-07-02T09:39:10;20.70;95.00
56240;DHT22;42154;51.992;5.896;2023-07-02T09:41:36;20.90;94.00
56240;DHT22;42154;51.992;5.896;2023-07-02T09:44:02;20.80;92.90
56240;DHT22;42154;51.992;5.896;2023-07-02T09:46:28;20.70;91.70
56240;DHT22;42154;51.992;5.896;2023-07-02T09:48:56;20.70;92.40
56240;DHT22;42154;51.992;5.896;2023-07-02T09:51:23;20.80;92.30
56240;DHT22;42154;51.992;5.896;2023-07-02T09:53:50;21.00;92.80
56240;DHT22;42154;51.992;5.896;2023-07-02T09:56:16;21.30;92.70
56240;DHT22;42154;51.992;5.896;2023-07-02T09:58:44;21.40;91.70
56240;DHT22;42154;51.992;5.896;2023-07-02T10:01:10;21.50;91.50
56240;DHT22;42154;51.992;5.896;2023-07-02T10:03:36;21.60;91.10
56240;DHT22;42154;51.992;5.896;2023-07-02T10:06:05;21.60;90.70
56240;DHT22;42154;51.992;5.896;2023-07-02T10:08:31;21.60;90.10
56240;DHT22;42154;51.992;5.896;2023-07-02T10:11:08;21.60;90.40
56240;DHT22;42154;51.992;5.896;2023-07-02T10:13:34;21.70;89.80
56240;DHT22;42154;51.992;5.896;2023-07-02T10:16:04;21.70;88.70
56240;DHT22;42154;51.992;5.896;2023-07-02T10:18:30;21.80;89.00
56240;DHT22;42154;51.992;5.896;2023-07-02T10:20:56;21.80;88.10
56240;DHT22;42154;51.992;5.896;2023-07-02T10:23:35;21.90;87.30
56240;DHT22;42154;51.992;5.896;2023-07-02T10:26:17;22.00;86.00
56240;DHT22;42154;51.992;5.896;2023-07-02T10:28:56;22.10;86.80
56240;DHT22;42154;51.992;5.896;2023-07-02T10:31:22;22.20;87.60
56240;DHT22;42154;51.992;5.896;2023-07-02T10:33:47;22.30;87.50
56240;DHT22;42154;51.992;5.896;2023-07-02T10:36:23;22.30;86.90
56240;DHT22;42154;51.992;5.896;2023-07-02T10:38:50;22.30;86.60
56240;DHT22;42154;51.992;5.896;2023-07-02T10:41:29;22.20;85.70
56240;DHT22;42154;51.992;5.896;2023-07-02T10:44:05;22.10;85.20
56240;DHT22;42154;51.992;5.896;2023-07-02T10:46:31;21.90;85.60
56240;DHT22;42154;51.992;5.896;2023-07-02T10:48:57;21.80;86.70
56240;DHT22;42154;51.992;5.896;2023-07-02T10:51:23;21.90;86.70
56240;DHT22;42154;51.992;5.896;2023-07-02T10:54:01;21.90;84.80
56240;DHT22;42154;51.992;5.896;2023-07-02T10:56:28;21.70;85.10
56240;DHT22;42154;51.992;5.896;2023-07-02T10:58:54;21.70;85.80
56240;DHT22;42154;51.992;5.896;2023-07-02T11:01:30;21.80;84.90
56240;DHT22;42154;51.992;5.896;2023-07-02T11:04:01;21.90;85.10
56240;DHT22;42154;51.992;5.896;2023-07-02T11:06:28;22.00;84.70
56240;DHT22;42154;51.992;5.896;2023-07-02T11:08:54;22.10;84.40
56240;DHT22;42154;51.992;5.896;2023-07-02T11:11:21;22.20;84.40
56240;DHT22;42154;51.992;5.896;2023-07-02T11:13:51;22.30;83.60
56240;DHT22;42154;51.992;5.896;2023-07-02T11:16:25;22.30;83.40
56240;DHT22;42154;51.992;5.896;2023-07-02T11:19:09;22.40;82.90
56240;DHT22;42154;51.992;5.896;2023-07-02T11:21:35;22.50;82.60
56240;DHT22;42154;51.992;5.896;2023-07-02T11:24:02;22.50;82.40
56240;DHT22;42154;51.992;5.896;2023-07-02T11:26:39;22.40;81.10
56240;DHT22;42154;51.992;5.896;2023-07-02T11:29:10;22.50;81.30
56240;DHT22;42154;51.992;5.896;2023-07-02T11:31:36;22.50;80.80
56240;DHT22;42154;51.992;5.896;2023-07-02T11:36:39;22.70;80.20
56240;DHT22;42154;51.992;5.896;2023-07-02T11:39:05;22.80;78.50
56240;DHT22;42154;51.992;5.896;2023-07-02T11:41:41;22.80;78.20
56240;DHT22;42154;51.992;5.896;2023-07-02T11:44:08;22.60;77.30
56240;DHT22;42154;51.992;5.896;2023-07-02T11:46:34;22.50;78.80
56240;DHT22;42154;51.992;5.896;2023-07-02T11:49:04;22.50;78.00
56240;DHT22;42154;51.992;5.896;2023-07-02T11:51:36;22.50;77.60
56240;DHT22;42154;51.992;5.896;2023-07-02T11:54:03;22.60;77.20
56240;DHT22;42154;51.992;5.896;2023-07-02T11:56:30;22.70;77.70
56240;DHT22;42154;51.992;5.896;2023-07-02T11:58:56;22.80;77.20
56240;DHT22;42154;51.992;5.896;2023-07-02T12:01:21;23.00;77.10
56240;DHT22;42154;51.992;5.896;2023-07-02T12:03:47;23.10;75.80
56240;DHT22;42154;51.992;5.896;2023-07-02T12:06:13;22.90;75.40
56240;DHT22;42154;51.992;5.896;2023-07-02T12:08:39;22.60;74.50
56240;DHT22;42154;51.992;5.896;2023-07-02T12:11:05;22.60;75.30
56240;DHT22;42154;51.992;5.896;2023-07-02T12:13:30;22.60;75.00
56240;DHT22;42154;51.992;5.896;2023-07-02T12:15:56;22.60;75.20
56240;DHT22;42154;51.992;5.896;2023-07-02T12:18:22;22.80;75.70
56240;DHT22;42154;51.992;5.896;2023-07-02T12:20:47;23.00;75.40
56240;DHT22;42154;51.992;5.896;2023-07-02T12:23:13;23.20;74.80
56240;DHT22;42154;51.992;5.896;2023-07-02T12:25:39;23.20;74.10
56240;DHT22;42154;51.992;5.896;2023-07-02T12:28:05;23.30;73.70
56240;DHT22;42154;51.992;5.896;2023-07-02T12:30:31;23.30;73.00
56240;DHT22;42154;51.992;5.896;2023-07-02T12:32:57;23.20;72.90
56240;DHT22;42154;51.992;5.896;2023-07-02T12:35:23;23.20;73.80
56240;DHT22;42154;51.992;5.896;2023-07-02T12:37:51;23.20;73.40
56240;DHT22;42154;51.992;5.896;2023-07-02T12:40:18;23.30;73.20
56240;DHT22;42154;51.992;5.896;2023-07-02T12:42:45;23.50;72.10
56240;DHT22;42154;51.992;5.896;2023-07-02T12:45:12;23.60;71.60
56240;DHT22;42154;51.992;5.896;2023-07-02T12:47:39;23.50;71.20
56240;DHT22;42154;51.992;5.896;2023-07-02T12:50:06;23.50;72.10
56240;DHT22;42154;51.992;5.896;2023-07-02T12:52:32;23.50;71.20
56240;DHT22;42154;51.992;5.896;2023-07-02T12:54:58;23.40;71.70
56240;DHT22;42154;51.992;5.896;2023-07-02T12:57:24;23.20;71.90
56240;DHT22;42154;51.992;5.896;2023-07-02T12:59:55;23.10;71.60
56240;DHT22;42154;51.992;5.896;2023-07-02T13:02:22;23.00;70.90
56240;DHT22;42154;51.992;5.896;2023-07-02T13:04:48;22.80;71.50
56240;DHT22;42154;51.992;5.896;2023-07-02T13:07:14;22.90;71.80
56240;DHT22;42154;51.992;5.896;2023-07-02T13:09:40;23.20;72.90
56240;DHT22;42154;51.992;5.896;2023-07-02T13:12:07;23.50;72.60
56240;DHT22;42154;51.992;5.896;2023-07-02T13:14:34;23.60;71.30
56240;DHT22;42154;51.992;5.896;2023-07-02T13:16:59;23.60;71.00
56240;DHT22;42154;51.992;5.896;2023-07-02T13:19:26;23.50;71.10
56240;DHT22;42154;51.992;5.896;2023-07-02T13:21:51;23.50;71.70
56240;DHT22;42154;51.992;5.896;2023-07-02T13:24:17;23.40;71.50
56240;DHT22;42154;51.992;5.896;2023-07-02T13:26:43;23.20;72.00
56240;DHT22;42154;51.992;5.896;2023-07-02T13:29:09;23.20;72.10
56240;DHT22;42154;51.992;5.896;2023-07-02T13:31:34;23.20;72.20
56240;DHT22;42154;51.992;5.896;2023-07-02T13:34:00;23.00;73.00
56240;DHT22;42154;51.992;5.896;2023-07-02T13:36:26;23.00;73.30
56240;DHT22;42154;51.992;5.896;2023-07-02T13:38:54;23.10;72.50
56240;DHT22;42154;51.992;5.896;2023-07-02T13:41:20;23.20;73.20
56240;DHT22;42154;51.992;5.896;2023-07-02T13:43:46;23.30;73.20
56240;DHT22;42154;51.992;5.896;2023-07-02T13:46:12;23.40;73.10
56240;DHT22;42154;51.992;5.896;2023-07-02T13:48:38;23.60;73.10
56240;DHT22;42154;51.992;5.896;2023-07-02T13:51:04;23.70;72.80
56240;DHT22;42154;51.992;5.896;2023-07-02T13:53:30;23.70;72.30
56240;DHT22;42154;51.992;5.896;2023-07-02T13:55:56;23.70;72.30
56240;DHT22;42154;51.992;5.896;2023-07-02T13:58:23;23.60;72.70
56240;DHT22;42154;51.992;5.896;2023-07-02T14:00:48;23.50;72.50
56240;DHT22;42154;51.992;5.896;2023-07-02T14:03:14;23.60;72.80
56240;DHT22;42154;51.992;5.896;2023-07-02T14:05:40;23.50;72.90
56240;DHT22;42154;51.992;5.896;2023-07-02T14:08:06;23.50;73.40
56240;DHT22;42154;51.992;5.896;2023-07-02T14:10:33;23.40;73.30
56240;DHT22;42154;51.992;5.896;2023-07-02T14:12:59;23.30;72.90
56240;DHT22;42154;51.992;5.896;2023-07-02T14:15:25;23.20;73.50
56240;DHT22;42154;51.992;5.896;2023-07-02T14:17:51;23.20;73.70
56240;DHT22;42154;51.992;5.896;2023-07-02T14:20:17;22.90;74.10
56240;DHT22;42154;51.992;5.896;2023-07-02T14:22:43;22.90;75.00
56240;DHT22;42154;51.992;5.896;2023-07-02T14:25:08;23.00;75.50
56240;DHT22;42154;51.992;5.896;2023-07-02T14:27:34;23.10;74.10
56240;DHT22;42154;51.992;5.896;2023-07-02T14:30:00;23.10;74.40
56240;DHT22;42154;51.992;5.896;2023-07-02T14:32:28;23.20;74.50
56240;DHT22;42154;51.992;5.896;2023-07-02T14:34:53;23.20;75.00
56240;DHT22;42154;51.992;5.896;2023-07-02T14:37:19;23.20;75.20
56240;DHT22;42154;51.992;5.896;2023-07-02T14:39:45;23.40;75.10
56240;DHT22;42154;51.992;5.896;2023-07-02T14:42:11;23.50;74.90
56240;DHT22;42154;51.992;5.896;2023-07-02T14:44:36;23.50;74.30
56240;DHT22;42154;51.992;5.896;2023-07-02T14:47:02;23.60;73.90
56240;DHT22;42154;51.992;5.896;2023-07-02T14:49:28;23.50;74.10
56240;DHT22;42154;51.992;5.896;2023-07-02T14:51:54;23.50;74.40
56240;DHT22;42154;51.992;5.896;2023-07-02T14:54:20;23.60;74.70
56240;DHT22;42154;51.992;5.896;2023-07-02T14:56:45;23.60;73.30
56240;DHT22;42154;51.992;5.896;2023-07-02T14:59:11;23.50;73.10
56240;DHT22;42154;51.992;5.896;2023-07-02T15:01:39;23.40;73.60
56240;DHT22;42154;51.992;5.896;2023-07-02T15:04:05;23.50;72.20
56240;DHT22;42154;51.992;5.896;2023-07-02T15:06:32;23.60;72.30
56240;DHT22;42154;51.992;5.896;2023-07-02T15:08:58;23.60;70.60
56240;DHT22;42154;51.992;5.896;2023-07-02T15:11:23;23.50;69.80
56240;DHT22;42154;51.992;5.896;2023-07-02T15:13:49;23.40;70.00
56240;DHT22;42154;51.992;5.896;2023-07-02T15:16:15;23.40;70.70
56240;DHT22;42154;51.992;5.896;2023-07-02T15:18:41;23.30;69.70
56240;DHT22;42154;51.992;5.896;2023-07-02T15:21:07;23.20;70.30
56240;DHT22;42154;51.992;5.896;2023-07-02T15:23:33;23.20;71.10
56240;DHT22;42154;51.992;5.896;2023-07-02T15:26:01;23.30;69.90
56240;DHT22;42154;51.992;5.896;2023-07-02T15:28:27;23.30;70.40
56240;DHT22;42154;51.992;5.896;2023-07-02T15:30:56;23.20;68.50
56240;DHT22;42154;51.992;5.896;2023-07-02T15:33:23;23.10;69.10